sensor_id;sensor_type;location;lat;lon;timestamp;temperature;humidity
55173;DHT22;41061;52.822;6.860;2023-09-08T00:00:57;19.50;99.90
55173;DHT22;41061;52.822;6.860;2023-09-08T00:03:23;19.50;99.90
55173;DHT22;41061;52.822;6.860;2023-09-08T00:05:48;19.50;99.90
55173;DHT22;41061;52.822;6.860;2023-09-08T00:08:14;19.40;99.90
55173;DHT22;41061;52.822;6.860;2023-09-08T00:10:40;19.50;99.90
55173;DHT22;41061;52.822;6.860;2023-09-08T00:13:06;19.50;99.90
55173;DHT22;41061;52.822;6.860;2023-09-08T00:15:36;19.50;99.90
55173;DHT22;41061;52.822;6.860;2023-09-08T00:18:01;19.50;99.90
55173;DHT22;41061;52.822;6.860;2023-09-08T00:20:27;19.50;99.90
55173;DHT22;41061;52.822;6.860;2023-09-08T00:22:53;19.50;99.90
55173;DHT22;41061;52.822;6.860;2023-09-08T00:25:19;19.50;99.90
55173;DHT22;41061;52.822;6.860;2023-09-08T00:27:44;19.50;99.90
55173;DHT22;41061;52.822;6.860;2023-09-08T00:30:10;19.50;99.90
55173;DHT22;41061;52.822;6.860;2023-09-08T00:32:36;19.40;99.90
55173;DHT22;41061;52.822;6.860;2023-09-08T00:35:05;19.40;99.90
55173;DHT22;41061;52.822;6.860;2023-09-08T00:37:31;19.40;99.90
55173;DHT22;41061;52.822;6.860;2023-09-08T00:39:57;19.30;99.90
55173;DHT22;41061;52.822;6.860;2023-09-08T00:42:23;19.30;99.90
55173;DHT22;41061;52.822;6.860;2023-09-08T00:44:48;19.30;99.90
55173;DHT22;41061;52.822;6.860;2023-09-08T00:47:15;19.30;99.90
55173;DHT22;41061;52.822;6.860;2023-09-08T00:49:41;19.30;99.90
55173;DHT22;41061;52.822;6.860;2023-09-08T00:52:07;19.20;99.90
55173;DHT22;41061;52.822;6.860;2023-09-08T00:54:32;19.20;99.90
55173;DHT22;41061;52.822;6.860;2023-09-08T00:56:59;19.20;99.90
55173;DHT22;41061;52.822;6.860;2023-09-08T00:59:27;19.20;99.90
55173;DHT22;41061;52.822;6.860;2023-09-08T01:01:53;19.10;99.90
55173;DHT22;41061;52.822;6.860;2023-09-08T01:04:20;19.10;99.90
55173;DHT22;41061;52.822;6.860;2023-09-08T01:06:46;19.00;99.90
55173;DHT22;41061;52.822;6.860;2023-09-08T01:09:12;19.00;99.90
55173;DHT22;41061;52.822;6.860;2023-09-08T01:11:39;19.00;99.90
55173;DHT22;41061;52.822;6.860;2023-09-08T01:14:05;18.90;99.90
55173;DHT22;41061;52.822;6.860;2023-09-08T01:16:30;18.90;99.90
55173;DHT22;41061;52.822;6.860;2023-09-08T01:18:56;18.90;99.90
55173;DHT22;41061;52.822;6.860;2023-09-08T01:26:48;18.80;99.90
55173;DHT22;41061;52.822;6.860;2023-09-08T01:29:16;18.80;99.90
55173;DHT22;41061;52.822;6.860;2023-09-08T01:31:42;18.80;99.90
55173;DHT22;41061;52.822;6.860;2023-09-08T01:34:08;18.70;99.90
55173;DHT22;41061;52.822;6.860;2023-09-08T01:36:34;18.70;99.90
55173;DHT22;41061;52.822;6.860;2023-09-08T01:39:01;18.70;99.90
55173;DHT22;41061;52.822;6.860;2023-09-08T01:41:27;18.70;99.90
55173;DHT22;41061;52.822;6.860;2023-09-08T01:43:53;18.70;99.90
55173;DHT22;41061;52.822;6.860;2023-09-08T01:46:20;18.60;99.90
55173;DHT22;41061;52.822;6.860;2023-09-08T01:48:45;18.60;99.90
55173;DHT22;41061;52.822;6.860;2023-09-08T01:51:11;18.50;99.90
55173;DHT22;41061;52.822;6.860;2023-09-08T01:53:37;18.50;99.90
55173;DHT22;41061;52.822;6.860;2023-09-08T01:56:03;18.50;99.90
55173;DHT22;41061;52.822;6.860;2023-09-08T01:58:28;18.50;99.90
55173;DHT22;41061;52.822;6.860;2023-09-08T02:00:56;18.40;99.90
55173;DHT22;41061;52.822;6.860;2023-09-08T02:03:25;18.40;99.90
55173;DHT22;41061;52.822;6.860;2023-09-08T02:05:51;18.30;99.90
55173;DHT22;41061;52.822;6.860;2023-09-08T02:08:17;18.30;99.90
55173;DHT22;41061;52.822;6.860;2023-09-08T02:10:42;18.30;99.90
55173;DHT22;41061;52.822;6.860;2023-09-08T02:13:09;18.20;99.90
55173;DHT22;41061;52.822;6.860;2023-09-08T02:15:35;18.20;99.90
55173;DHT22;41061;52.822;6.860;2023-09-08T02:18:02;18.20;99.90
55173;DHT22;41061;52.822;6.860;2023-09-08T02:20:27;18.20;99.90
55173;DHT22;41061;52.822;6.860;2023-09-08T02:22:54;18.10;99.90
55173;DHT22;41061;52.822;6.860;2023-09-08T02:25:20;18.10;99.90
55173;DHT22;41061;52.822;6.860;2023-09-08T02:27:48;18.10;99.90
55173;DHT22;41061;52.822;6.860;2023-09-08T02:30:14;18.10;99.90
55173;DHT22;41061;52.822;6.860;2023-09-08T02:32:39;18.10;99.90
55173;DHT22;41061;52.822;6.860;2023-09-08T02:35:09;18.00;99.90
55173;DHT22;41061;52.822;6.860;2023-09-08T02:37:35;18.00;99.90
55173;DHT22;41061;52.822;6.860;2023-09-08T02:40:01;18.00;99.90
55173;DHT22;41061;52.822;6.860;2023-09-08T02:42:27;17.90;99.90
55173;DHT22;41061;52.822;6.860;2023-09-08T02:44:53;17.90;99.90
55173;DHT22;41061;52.822;6.860;2023-09-08T02:47:19;17.90;99.90
55173;DHT22;41061;52.822;6.860;2023-09-08T02:49:44;17.80;99.90
55173;DHT22;41061;52.822;6.860;2023-09-08T02:52:10;17.80;99.90
55173;DHT22;41061;52.822;6.860;2023-09-08T02:54:36;17.80;99.90
55173;DHT22;41061;52.822;6.860;2023-09-08T02:57:02;17.80;99.90
55173;DHT22;41061;52.822;6.860;2023-09-08T02:59:27;17.70;99.90
55173;DHT22;41061;52.822;6.860;2023-09-08T03:01:53;17.60;99.90
55173;DHT22;41061;52.822;6.860;2023-09-08T03:04:19;17.60;99.90
55173;DHT22;41061;52.822;6.860;2023-09-08T03:06:45;17.60;99.90
55173;DHT22;41061;52.822;6.860;2023-09-08T03:09:10;17.60;99.90
55173;DHT22;41061;52.822;6.860;2023-09-08T03:11:36;17.60;99.90
55173;DHT22;41061;52.822;6.860;2023-09-08T03:14:03;17.60;99.90
55173;DHT22;41061;52.822;6.860;2023-09-08T03:16:28;17.50;99.90
55173;DHT22;41061;52.822;6.860;2023-09-08T03:18:54;17.60;99.90
55173;DHT22;41061;52.822;6.860;2023-09-08T03:21:20;17.50;99.90
55173;DHT22;41061;52.822;6.860;2023-09-08T03:23:46;17.50;99.90
55173;DHT22;41061;52.822;6.860;2023-09-08T03:26:12;17.50;99.90
55173;DHT22;41061;52.822;6.860;2023-09-08T03:28:38;17.50;99.90
55173;DHT22;41061;52.822;6.860;2023-09-08T03:31:04;17.50;99.90
55173;DHT22;41061;52.822;6.860;2023-09-08T03:33:30;17.50;99.90
55173;DHT22;41061;52.822;6.860;2023-09-08T03:35:56;17.50;99.90
55173;DHT22;41061;52.822;6.860;2023-09-08T03:38:23;17.40;99.90
55173;DHT22;41061;52.822;6.860;2023-09-08T03:40:49;17.40;99.90
55173;DHT22;41061;52.822;6.860;2023-09-08T03:43:15;17.40;99.90
55173;DHT22;41061;52.822;6.860;2023-09-08T03:45:40;17.40;99.90
55173;DHT22;41061;52.822;6.860;2023-09-08T03:48:07;17.40;99.90
55173;DHT22;41061;52.822;6.860;2023-09-08T03:50:33;17.30;99.90
55173;DHT22;41061;52.822;6.860;2023-09-08T03:52:58;17.30;99.90
55173;DHT22;41061;52.822;6.860;2023-09-08T03:55:24;17.30;99.90
55173;DHT22;41061;52.822;6.860;2023-09-08T03:57:50;17.30;99.90
55173;DHT22;41061;52.822;6.860;2023-09-08T04:00:15;17.30;99.90
55173;DHT22;41061;52.822;6.860;2023-09-08T04:02:47;17.20;99.90
55173;DHT22;41061;52.822;6.860;2023-09-08T04:05:16;17.20;99.90
55173;DHT22;41061;52.822;6.860;2023-09-08T04:07:43;17.20;99.90
55173;DHT22;41061;52.822;6.860;2023-09-08T04:10:09;17.20;99.90
55173;DHT22;41061;52.822;6.860;2023-09-08T04:12:35;17.20;99.90
55173;DHT22;41061;52.822;6.860;2023-09-08T04:15:01;17.20;99.90
55173;DHT22;41061;52.822;6.860;2023-09-08T04:17:26;17.20;99.90
55173;DHT22;41061;52.822;6.860;2023-09-08T04:19:52;17.20;99.90
55173;DHT22;41061;52.822;6.860;2023-09-08T04:22:18;17.20;99.90
55173;DHT22;41061;52.822;6.860;2023-09-08T04:24:44;17.20;99.90
55173;DHT22;41061;52.822;6.860;2023-09-08T04:27:10;17.20;99.90
55173;DHT22;41061;52.822;6.860;2023-09-08T04:29:36;17.20;99.90
55173;DHT22;41061;52.822;6.860;2023-09-08T04:32:02;17.20;99.90
55173;DHT22;41061;52.822;6.860;2023-09-08T04:34:36;17.20;99.90
55173;DHT22;41061;52.822;6.860;2023-09-08T04:37:03;17.20;99.90
55173;DHT22;41061;52.822;6.860;2023-09-08T04:39:28;17.20;99.90
55173;DHT22;41061;52.822;6.860;2023-09-08T04:41:54;17.10;99.90
55173;DHT22;41061;52.822;6.860;2023-09-08T04:44:20;17.10;99.90
55173;DHT22;41061;52.822;6.860;2023-09-08T04:46:45;17.20;99.90
55173;DHT22;41061;52.822;6.860;2023-09-08T04:49:11;17.10;99.90
55173;DHT22;41061;52.822;6.860;2023-09-08T04:51:37;17.20;99.90
55173;DHT22;41061;52.822;6.860;2023-09-08T04:54:03;17.10;99.90
55173;DHT22;41061;52.822;6.860;2023-09-08T04:56:28;17.10;99.90
55173;DHT22;41061;52.822;6.860;2023-09-08T04:58:54;17.10;99.90
55173;DHT22;41061;52.822;6.860;2023-09-08T05:01:20;17.10;99.90
55173;DHT22;41061;52.822;6.860;2023-09-08T05:03:46;17.10;99.90
55173;DHT22;41061;52.822;6.860;2023-09-08T05:06:12;17.10;99.90
55173;DHT22;41061;52.822;6.860;2023-09-08T05:08:39;17.00;99.90
55173;DHT22;41061;52.822;6.860;2023-09-08T05:11:05;17.00;99.90
55173;DHT22;41061;52.822;6.860;2023-09-08T05:13:31;17.00;99.90
55173;DHT22;41061;52.822;6.860;2023-09-08T05:15:56;16.90;99.90
55173;DHT22;41061;52.822;6.860;2023-09-08T05:18:28;16.90;99.90
55173;DHT22;41061;52.822;6.860;2023-09-08T05:20:54;16.90;99.90
55173;DHT22;41061;52.822;6.860;2023-09-08T05:23:20;16.90;99.90
55173;DHT22;41061;52.822;6.860;2023-09-08T05:25:45;16.90;99.90
55173;DHT22;41061;52.822;6.860;2023-09-08T05:28:11;16.90;99.90
55173;DHT22;41061;52.822;6.860;2023-09-08T05:30:37;17.00;99.90
55173;DHT22;41061;52.822;6.860;2023-09-08T05:33:02;17.00;99.90
55173;DHT22;41061;52.822;6.860;2023-09-08T05:35:28;17.00;99.90
55173;DHT22;41061;52.822;6.860;2023-09-08T05:37:54;17.10;99.90
55173;DHT22;41061;52.822;6.860;2023-09-08T05:40:19;17.10;99.90
55173;DHT22;41061;52.822;6.860;2023-09-08T05:42:49;17.10;99.90
55173;DHT22;41061;52.822;6.860;2023-09-08T05:45:15;17.20;99.90
55173;DHT22;41061;52.822;6.860;2023-09-08T05:47:40;17.20;99.90
55173;DHT22;41061;52.822;6.860;2023-09-08T05:50:06;17.30;99.90
55173;DHT22;41061;52.822;6.860;2023-09-08T05:52:32;17.40;99.90
55173;DHT22;41061;52.822;6.860;2023-09-08T05:54:58;17.40;99.90
55173;DHT22;41061;52.822;6.860;2023-09-08T05:57:24;17.50;99.90
55173;DHT22;41061;52.822;6.860;2023-09-08T05:59:50;17.50;99.90
55173;DHT22;41061;52.822;6.860;2023-09-08T06:02:16;17.60;99.90
55173;DHT22;41061;52.822;6.860;2023-09-08T06:04:41;17.70;99.90
55173;DHT22;41061;52.822;6.860;2023-09-08T06:07:07;17.80;99.90
55173;DHT22;41061;52.822;6.860;2023-09-08T06:09:33;17.80;99.90
55173;DHT22;41061;52.822;6.860;2023-09-08T06:11:58;17.90;99.90
55173;DHT22;41061;52.822;6.860;2023-09-08T06:14:24;17.90;99.90
55173;DHT22;41061;52.822;6.860;2023-09-08T06:16:50;18.00;99.90
55173;DHT22;41061;52.822;6.860;2023-09-08T06:19:16;18.10;99.90
55173;DHT22;41061;52.822;6.860;2023-09-08T06:21:41;18.20;99.90
55173;DHT22;41061;52.822;6.860;2023-09-08T06:24:07;18.30;99.90
55173;DHT22;41061;52.822;6.860;2023-09-08T06:26:33;18.30;99.90
55173;DHT22;41061;52.822;6.860;2023-09-08T06:28:59;18.40;99.90
55173;DHT22;41061;52.822;6.860;2023-09-08T06:31:24;18.60;99.90
55173;DHT22;41061;52.822;6.860;2023-09-08T06:33:50;18.70;99.90
55173;DHT22;41061;52.822;6.860;2023-09-08T06:36:18;18.80;99.90
55173;DHT22;41061;52.822;6.860;2023-09-08T06:38:44;18.90;99.90
55173;DHT22;41061;52.822;6.860;2023-09-08T06:41:11;19.00;99.90
55173;DHT22;41061;52.822;6.860;2023-09-08T06:43:37;19.10;99.90
55173;DHT22;41061;52.822;6.860;2023-09-08T06:46:03;19.20;99.90
55173;DHT22;41061;52.822;6.860;2023-09-08T06:48:30;19.30;99.90
55173;DHT22;41061;52.822;6.860;2023-09-08T06:50:56;19.50;99.90
55173;DHT22;41061;52.822;6.860;2023-09-08T06:53:22;19.60;99.90
55173;DHT22;41061;52.822;6.860;2023-09-08T06:55:48;19.70;99.90
55173;DHT22;41061;52.822;6.860;2023-09-08T06:58:14;19.70;99.90
55173;DHT22;41061;52.822;6.860;2023-09-08T07:00:45;19.90;99.90
55173;DHT22;41061;52.822;6.860;2023-09-08T07:03:11;19.90;99.90
55173;DHT22;41061;52.822;6.860;2023-09-08T07:05:39;20.00;99.90
55173;DHT22;41061;52.822;6.860;2023-09-08T07:08:05;20.20;99.90
55173;DHT22;41061;52.822;6.860;2023-09-08T07:10:34;20.30;99.90
55173;DHT22;41061;52.822;6.860;2023-09-08T07:12:59;20.40;99.90
55173;DHT22;41061;52.822;6.860;2023-09-08T07:15:25;20.50;99.90
55173;DHT22;41061;52.822;6.860;2023-09-08T07:17:51;20.60;99.90
55173;DHT22;41061;52.822;6.860;2023-09-08T07:59:22;22.50;99.90
55173;DHT22;41061;52.822;6.860;2023-09-08T08:01:48;22.60;99.90
55173;DHT22;41061;52.822;6.860;2023-09-08T08:04:14;22.70;99.90
55173;DHT22;41061;52.822;6.860;2023-09-08T08:06:40;22.80;99.90
55173;DHT22;41061;52.822;6.860;2023-09-08T08:09:06;22.90;99.90
55173;DHT22;41061;52.822;6.860;2023-09-08T08:11:32;23.00;99.90
55173;DHT22;41061;52.822;6.860;2023-09-08T08:13:57;23.10;99.90
55173;DHT22;41061;52.822;6.860;2023-09-08T08:16:23;23.20;99.90
55173;DHT22;41061;52.822;6.860;2023-09-08T08:18:49;23.30;99.90
55173;DHT22;41061;52.822;6.860;2023-09-08T08:21:15;23.40;99.90
55173;DHT22;41061;52.822;6.860;2023-09-08T08:23:41;23.40;99.90
55173;DHT22;41061;52.822;6.860;2023-09-08T08:26:07;23.50;99.90
55173;DHT22;41061;52.822;6.860;2023-09-08T08:28:32;23.50;99.90
55173;DHT22;41061;52.822;6.860;2023-09-08T08:30:58;23.60;99.90
55173;DHT22;41061;52.822;6.860;2023-09-08T08:33:24;23.70;99.90
55173;DHT22;41061;52.822;6.860;2023-09-08T08:35:52;23.80;99.90
55173;DHT22;41061;52.822;6.860;2023-09-08T08:38:18;23.90;99.90
55173;DHT22;41061;52.822;6.860;2023-09-08T08:40:45;24.00;99.90
55173;DHT22;41061;52.822;6.860;2023-09-08T08:43:10;24.10;99.90
55173;DHT22;41061;52.822;6.860;2023-09-08T08:45:37;24.30;99.90
55173;DHT22;41061;52.822;6.860;2023-09-08T08:48:05;24.40;99.90
55173;DHT22;41061;52.822;6.860;2023-09-08T08:50:35;24.50;99.90
55173;DHT22;41061;52.822;6.860;2023-09-08T08:53:01;24.60;99.90
55173;DHT22;41061;52.822;6.860;2023-09-08T08:55:30;24.70;99.90
55173;DHT22;41061;52.822;6.860;2023-09-08T08:58:03;24.90;99.90
55173;DHT22;41061;52.822;6.860;2023-09-08T09:00:29;25.00;99.90
55173;DHT22;41061;52.822;6.860;2023-09-08T09:02:55;25.10;99.90
55173;DHT22;41061;52.822;6.860;2023-09-08T09:05:23;25.30;99.90
55173;DHT22;41061;52.822;6.860;2023-09-08T09:07:50;25.30;99.90
55173;DHT22;41061;52.822;6.860;2023-09-08T09:10:16;25.60;99.90
55173;DHT22;41061;52.822;6.860;2023-09-08T09:12:43;25.60;99.90
55173;DHT22;41061;52.822;6.860;2023-09-08T09:15:09;25.80;99.90
55173;DHT22;41061;52.822;6.860;2023-09-08T09:17:35;25.90;99.90
55173;DHT22;41061;52.822;6.860;2023-09-08T09:20:18;26.00;99.90
55173;DHT22;41061;52.822;6.860;2023-09-08T09:22:46;26.10;99.90
55173;DHT22;41061;52.822;6.860;2023-09-08T09:25:22;26.20;99.90
55173;DHT22;41061;52.822;6.860;2023-09-08T09:27:53;26.20;99.90
55173;DHT22;41061;52.822;6.860;2023-09-08T09:30:18;26.40;99.90
55173;DHT22;41061;52.822;6.860;2023-09-08T09:32:44;26.40;99.90
55173;DHT22;41061;52.822;6.860;2023-09-08T09:35:10;26.60;99.90
55173;DHT22;41061;52.822;6.860;2023-09-08T09:37:36;26.60;99.90
55173;DHT22;41061;52.822;6.860;2023-09-08T09:40:03;26.70;99.90
55173;DHT22;41061;52.822;6.860;2023-09-08T09:42:33;26.80;99.90
55173;DHT22;41061;52.822;6.860;2023-09-08T09:45:01;26.90;99.90
55173;DHT22;41061;52.822;6.860;2023-09-08T09:47:27;27.10;99.90
55173;DHT22;41061;52.822;6.860;2023-09-08T09:49:53;27.20;99.90
55173;DHT22;41061;52.822;6.860;2023-09-08T09:52:23;27.30;99.90
55173;DHT22;41061;52.822;6.860;2023-09-08T09:54:52;27.40;99.90
55173;DHT22;41061;52.822;6.860;2023-09-08T09:57:21;27.50;99.90
55173;DHT22;41061;52.822;6.860;2023-09-08T09:59:47;27.50;99.90
55173;DHT22;41061;52.822;6.860;2023-09-08T10:02:18;27.60;99.90
55173;DHT22;41061;52.822;6.860;2023-09-08T10:04:48;27.70;99.90
55173;DHT22;41061;52.822;6.860;2023-09-08T10:07:17;27.80;99.90
55173;DHT22;41061;52.822;6.860;2023-09-08T10:09:43;27.90;99.90
55173;DHT22;41061;52.822;6.860;2023-09-08T10:12:13;28.10;99.90
55173;DHT22;41061;52.822;6.860;2023-09-08T10:14:41;28.10;99.90
55173;DHT22;41061;52.822;6.860;2023-09-08T10:17:22;28.20;99.90
55173;DHT22;41061;52.822;6.860;2023-09-08T10:19:51;28.20;99.90
55173;DHT22;41061;52.822;6.860;2023-09-08T10:22:25;28.30;99.90
55173;DHT22;41061;52.822;6.860;2023-09-08T10:24:55;28.30;99.90
55173;DHT22;41061;52.822;6.860;2023-09-08T10:27:23;28.40;99.90
55173;DHT22;41061;52.822;6.860;2023-09-08T10:29:49;28.40;99.90
55173;DHT22;41061;52.822;6.860;2023-09-08T10:32:16;28.50;99.90
55173;DHT22;41061;52.822;6.860;2023-09-08T10:34:42;28.60;99.90
55173;DHT22;41061;52.822;6.860;2023-09-08T10:37:22;28.70;99.90
55173;DHT22;41061;52.822;6.860;2023-09-08T10:39:50;28.90;99.90
55173;DHT22;41061;52.822;6.860;2023-09-08T10:45:13;29.00;98.30
55173;DHT22;41061;52.822;6.860;2023-09-08T10:50:27;29.00;98.10
55173;DHT22;41061;52.822;6.860;2023-09-08T10:53:16;29.10;97.40
55173;DHT22;41061;52.822;6.860;2023-09-08T10:55:53;29.20;96.20
55173;DHT22;41061;52.822;6.860;2023-09-08T10:58:38;29.20;97.40
55173;DHT22;41061;52.822;6.860;2023-09-08T11:01:06;29.40;97.50
55173;DHT22;41061;52.822;6.860;2023-09-08T11:13:28;29.70;94.00
55173;DHT22;41061;52.822;6.860;2023-09-08T11:15:55;29.70;92.80
55173;DHT22;41061;52.822;6.860;2023-09-08T11:18:31;29.80;92.70
55173;DHT22;41061;52.822;6.860;2023-09-08T11:20:58;29.80;93.10
55173;DHT22;41061;52.822;6.860;2023-09-08T11:23:24;29.90;93.20
55173;DHT22;41061;52.822;6.860;2023-09-08T11:25:51;30.10;92.60
55173;DHT22;41061;52.822;6.860;2023-09-08T11:28:17;30.20;93.70
55173;DHT22;41061;52.822;6.860;2023-09-08T11:30:52;30.30;92.30
55173;DHT22;41061;52.822;6.860;2023-09-08T11:33:19;30.40;93.20
55173;DHT22;41061;52.822;6.860;2023-09-08T11:35:50;30.50;93.30
55173;DHT22;41061;52.822;6.860;2023-09-08T11:38:18;30.60;92.50
55173;DHT22;41061;52.822;6.860;2023-09-08T11:40:43;30.60;92.80
55173;DHT22;41061;52.822;6.860;2023-09-08T11:43:09;30.70;93.30
55173;DHT22;41061;52.822;6.860;2023-09-08T11:45:35;30.90;93.10
55173;DHT22;41061;52.822;6.860;2023-09-08T11:48:01;31.00;93.40
55173;DHT22;41061;52.822;6.860;2023-09-08T11:50:29;31.00;93.60
55173;DHT22;41061;52.822;6.860;2023-09-08T11:52:55;31.10;91.70
55173;DHT22;41061;52.822;6.860;2023-09-08T11:55:22;31.20;91.20
55173;DHT22;41061;52.822;6.860;2023-09-08T11:57:52;31.20;90.50
55173;DHT22;41061;52.822;6.860;2023-09-08T12:00:20;31.30;92.50
55173;DHT22;41061;52.822;6.860;2023-09-08T12:02:49;31.30;92.50
55173;DHT22;41061;52.822;6.860;2023-09-08T12:05:27;31.50;91.50
55173;DHT22;41061;52.822;6.860;2023-09-08T12:07:57;31.50;91.40
55173;DHT22;41061;52.822;6.860;2023-09-08T12:10:25;31.70;90.20
55173;DHT22;41061;52.822;6.860;2023-09-08T12:12:52;31.60;90.50
55173;DHT22;41061;52.822;6.860;2023-09-08T12:18:08;31.90;90.20
55173;DHT22;41061;52.822;6.860;2023-09-08T12:20:35;31.90;90.20
55173;DHT22;41061;52.822;6.860;2023-09-08T12:23:06;32.00;89.10
55173;DHT22;41061;52.822;6.860;2023-09-08T12:25:53;32.20;90.10
55173;DHT22;41061;52.822;6.860;2023-09-08T12:28:22;32.30;89.80
55173;DHT22;41061;52.822;6.860;2023-09-08T12:33:15;32.30;88.50
55173;DHT22;41061;52.822;6.860;2023-09-08T12:38:10;32.40;88.50
55173;DHT22;41061;52.822;6.860;2023-09-08T12:40:38;32.40;86.80
55173;DHT22;41061;52.822;6.860;2023-09-08T14:03:55;33.30;73.90
55173;DHT22;41061;52.822;6.860;2023-09-08T14:06:22;33.20;74.70
55173;DHT22;41061;52.822;6.860;2023-09-08T14:08:48;33.10;74.60
55173;DHT22;41061;52.822;6.860;2023-09-08T14:13:40;33.20;74.50
55173;DHT22;41061;52.822;6.860;2023-09-08T14:16:06;33.30;74.80
55173;DHT22;41061;52.822;6.860;2023-09-08T14:18:31;33.20;74.00
55173;DHT22;41061;52.822;6.860;2023-09-08T14:20:58;33.30;74.80
55173;DHT22;41061;52.822;6.860;2023-09-08T14:23:23;33.30;75.40
55173;DHT22;41061;52.822;6.860;2023-09-08T14:25:49;33.40;75.20
55173;DHT22;41061;52.822;6.860;2023-09-08T14:30:41;33.50;73.90
55173;DHT22;41061;52.822;6.860;2023-09-08T14:33:07;33.50;74.10
55173;DHT22;41061;52.822;6.860;2023-09-08T14:45:17;33.40;69.70
55173;DHT22;41061;52.822;6.860;2023-09-08T14:47:43;33.20;71.30
55173;DHT22;41061;52.822;6.860;2023-09-08T14:50:09;33.10;71.80
55173;DHT22;41061;52.822;6.860;2023-09-08T14:52:35;32.90;72.30
55173;DHT22;41061;52.822;6.860;2023-09-08T14:55:00;32.90;72.80
55173;DHT22;41061;52.822;6.860;2023-09-08T14:57:26;32.80;73.00
55173;DHT22;41061;52.822;6.860;2023-09-08T14:59:52;32.70;74.00
55173;DHT22;41061;52.822;6.860;2023-09-08T15:02:21;32.70;74.90
55173;DHT22;41061;52.822;6.860;2023-09-08T15:04:48;32.50;75.20
55173;DHT22;41061;52.822;6.860;2023-09-08T15:07:14;32.40;75.30
55173;DHT22;41061;52.822;6.860;2023-09-08T15:09:39;32.30;73.70
55173;DHT22;41061;52.822;6.860;2023-09-08T15:12:05;32.20;74.30
55173;DHT22;41061;52.822;6.860;2023-09-08T15:14:31;32.00;75.20
55173;DHT22;41061;52.822;6.860;2023-09-08T15:16:57;31.90;75.10
55173;DHT22;41061;52.822;6.860;2023-09-08T15:19:23;31.80;76.00
55173;DHT22;41061;52.822;6.860;2023-09-08T15:21:49;31.80;76.50
55173;DHT22;41061;52.822;6.860;2023-09-08T15:24:15;31.70;77.30
55173;DHT22;41061;52.822;6.860;2023-09-08T15:26:40;31.70;76.70
55173;DHT22;41061;52.822;6.860;2023-09-08T15:29:06;31.60;77.10
55173;DHT22;41061;52.822;6.860;2023-09-08T15:31:32;31.60;77.00
55173;DHT22;41061;52.822;6.860;2023-09-08T15:33:58;31.60;76.50
55173;DHT22;41061;52.822;6.860;2023-09-08T15:36:23;31.50;77.60
55173;DHT22;41061;52.822;6.860;2023-09-08T15:38:49;31.30;77.20
55173;DHT22;41061;52.822;6.860;2023-09-08T15:41:16;31.30;76.80
55173;DHT22;41061;52.822;6.860;2023-09-08T15:43:45;31.20;77.60
55173;DHT22;41061;52.822;6.860;2023-09-08T15:46:11;31.00;77.90
55173;DHT22;41061;52.822;6.860;2023-09-08T15:48:37;30.90;77.80
55173;DHT22;41061;52.822;6.860;2023-09-08T15:51:04;30.80;77.60
55173;DHT22;41061;52.822;6.860;2023-09-08T15:53:30;30.70;77.90
55173;DHT22;41061;52.822;6.860;2023-09-08T16:03:15;30.10;79.80
55173;DHT22;41061;52.822;6.860;2023-09-08T16:05:41;30.10;80.60
55173;DHT22;41061;52.822;6.860;2023-09-08T16:08:06;30.00;81.60
55173;DHT22;41061;52.822;6.860;2023-09-08T16:10:32;29.80;82.40
55173;DHT22;41061;52.822;6.860;2023-09-08T16:12:57;29.70;83.00
55173;DHT22;41061;52.822;6.860;2023-09-08T16:15:26;29.60;84.20
55173;DHT22;41061;52.822;6.860;2023-09-08T16:17:52;29.50;84.60
55173;DHT22;41061;52.822;6.860;2023-09-08T16:20:18;29.50;86.00
55173;DHT22;41061;52.822;6.860;2023-09-08T16:22:46;29.40;87.40
55173;DHT22;41061;52.822;6.860;2023-09-08T16:25:11;29.30;88.30
55173;DHT22;41061;52.822;6.860;2023-09-08T16:27:37;29.20;88.30
55173;DHT22;41061;52.822;6.860;2023-09-08T16:30:03;29.10;88.70
55173;DHT22;41061;52.822;6.860;2023-09-08T16:32:29;29.00;89.00
55173;DHT22;41061;52.822;6.860;2023-09-08T16:34:55;28.90;90.00
55173;DHT22;41061;52.822;6.860;2023-09-08T16:37:20;28.80;90.40
55173;DHT22;41061;52.822;6.860;2023-09-08T16:39:46;28.80;90.80
55173;DHT22;41061;52.822;6.860;2023-09-08T16:42:12;28.70;91.30
55173;DHT22;41061;52.822;6.860;2023-09-08T16:44:40;28.60;91.10
55173;DHT22;41061;52.822;6.860;2023-09-08T16:47:09;28.50;91.80
55173;DHT22;41061;52.822;6.860;2023-09-08T16:49:35;28.50;92.30
55173;DHT22;41061;52.822;6.860;2023-09-08T16:52:01;28.40;92.60
55173;DHT22;41061;52.822;6.860;2023-09-08T16:54:26;28.30;93.70
55173;DHT22;41061;52.822;6.860;2023-09-08T16:56:52;28.30;94.50
55173;DHT22;41061;52.822;6.860;2023-09-08T16:59:18;28.20;94.40
55173;DHT22;41061;52.822;6.860;2023-09-08T17:01:45;28.10;94.50
55173;DHT22;41061;52.822;6.860;2023-09-08T17:04:11;28.10;95.20
55173;DHT22;41061;52.822;6.860;2023-09-08T17:09:03;27.80;97.00
55173;DHT22;41061;52.822;6.860;2023-09-08T17:11:29;27.70;99.90
55173;DHT22;41061;52.822;6.860;2023-09-08T17:13:55;27.60;99.90
55173;DHT22;41061;52.822;6.860;2023-09-08T17:16:21;27.40;99.90
55173;DHT22;41061;52.822;6.860;2023-09-08T17:18:47;27.30;99.90
55173;DHT22;41061;52.822;6.860;2023-09-08T17:21:13;27.30;99.90
55173;DHT22;41061;52.822;6.860;2023-09-08T17:23:38;27.10;99.90
55173;DHT22;41061;52.822;6.860;2023-09-08T17:26:04;27.00;99.90
55173;DHT22;41061;52.822;6.860;2023-09-08T17:28:30;26.90;99.90
55173;DHT22;41061;52.822;6.860;2023-09-08T17:30:56;26.80;99.90
55173;DHT22;41061;52.822;6.860;2023-09-08T17:33:21;26.70;99.90
55173;DHT22;41061;52.822;6.860;2023-09-08T17:38:15;26.30;99.90
55173;DHT22;41061;52.822;6.860;2023-09-08T17:40:41;25.50;99.90
55173;DHT22;41061;52.822;6.860;2023-09-08T17:45:32;25.90;99.90
55173;DHT22;41061;52.822;6.860;2023-09-08T17:47:58;25.90;99.90
55173;DHT22;41061;52.822;6.860;2023-09-08T17:50:24;25.80;99.90
55173;DHT22;41061;52.822;6.860;2023-09-08T17:52:50;25.70;99.90
55173;DHT22;41061;52.822;6.860;2023-09-08T17:55:16;25.60;99.90
55173;DHT22;41061;52.822;6.860;2023-09-08T17:57:41;25.50;99.90
55173;DHT22;41061;52.822;6.860;2023-09-08T18:00:07;25.50;99.90
55173;DHT22;41061;52.822;6.860;2023-09-08T18:02:33;25.40;99.90
55173;DHT22;41061;52.822;6.860;2023-09-08T18:04:59;25.30;99.90
55173;DHT22;41061;52.822;6.860;2023-09-08T18:07:25;25.10;99.90
55173;DHT22;41061;52.822;6.860;2023-09-08T18:09:51;25.00;99.90
55173;DHT22;41061;52.822;6.860;2023-09-08T18:12:17;24.90;99.90
55173;DHT22;41061;52.822;6.860;2023-09-08T18:14:43;24.80;99.90
55173;DHT22;41061;52.822;6.860;2023-09-08T18:17:09;24.70;99.90
55173;DHT22;41061;52.822;6.860;2023-09-08T18:19:36;24.60;99.90
55173;DHT22;41061;52.822;6.860;2023-09-08T18:22:03;24.50;99.90
55173;DHT22;41061;52.822;6.860;2023-09-08T18:24:29;24.40;99.90